createdAt,value
2023-05-25T00:01:49.707Z,100504.41
2023-05-25T00:04:56.853Z,100505.22
2023-05-25T00:08:03.770Z,100512.41
2023-05-25T00:11:09.605Z,100508.00
2023-05-25T00:14:16.783Z,100511.09
2023-05-25T00:17:22.884Z,100508.22
2023-05-25T00:20:29.387Z,100513.41
2023-05-25T00:23:36.716Z,100508.66
2023-05-25T00:26:43.902Z,100510.06
2023-05-25T00:29:52.027Z,100512.72
2023-05-25T00:33:01.538Z,100512.28
2023-05-25T00:36:09.251Z,100522.03
2023-05-25T00:39:19.532Z,100516.41
2023-05-25T00:42:27.848Z,100514.50
2023-05-25T00:45:33.856Z,100519.06
2023-05-25T00:48:40.728Z,100526.03
2023-05-25T00:51:47.936Z,100527.88
2023-05-25T00:54:56.720Z,100529.56
2023-05-25T00:58:07.967Z,100537.22
2023-05-25T01:01:16.444Z,100535.13
2023-05-25T01:04:24.668Z,100539.00
2023-05-25T01:07:34.254Z,100536.97
2023-05-25T01:10:44.064Z,100539.94
2023-05-25T01:13:55.838Z,100547.69
2023-05-25T01:17:04.242Z,100544.72
2023-05-25T01:20:13.268Z,100542.91
2023-05-25T01:23:21.690Z,100542.03
2023-05-25T01:26:33.441Z,100547.91
2023-05-25T01:29:44.242Z,100545.66
2023-05-25T01:32:51.743Z,100546.16
2023-05-25T01:35:59.172Z,100550.47
2023-05-25T01:39:07.294Z,100549.56
2023-05-25T01:42:12.663Z,100553.06
2023-05-25T01:45:19.175Z,100557.56
2023-05-25T01:48:44.490Z,100552.06
2023-05-25T01:52:14.688Z,100554.19
2023-05-25T01:55:21.751Z,100557.75
2023-05-25T01:58:36.833Z,100550.94
2023-05-25T02:01:46.972Z,100549.50
2023-05-25T02:04:57.246Z,100552.66
2023-05-25T02:08:05.955Z,100553.31
2023-05-25T02:11:15.524Z,100559.34
2023-05-25T02:14:21.848Z,100547.19
2023-05-25T02:17:28.734Z,100551.25
2023-05-25T02:20:37.229Z,100555.06
2023-05-25T02:23:44.430Z,100556.59
2023-05-25T02:26:53.037Z,100555.31
2023-05-25T02:29:59.426Z,100563.31
2023-05-25T02:33:07.069Z,100563.31
2023-05-25T02:36:15.623Z,100563.06
2023-05-25T02:39:22.034Z,100572.81
2023-05-25T02:42:28.578Z,100565.56
2023-05-25T02:45:33.982Z,100570.78
2023-05-25T02:48:44.631Z,100578.06
2023-05-25T02:51:53.128Z,100580.34
2023-05-25T02:54:58.968Z,100568.94
2023-05-25T02:58:05.951Z,100575.41
2023-05-25T03:01:19.207Z,100577.06
2023-05-25T03:04:25.695Z,100569.63
2023-05-25T03:07:35.074Z,100579.72
2023-05-25T03:10:41.077Z,100571.34
2023-05-25T03:13:51.728Z,100583.13
2023-05-25T03:16:59.152Z,100580.72
2023-05-25T03:20:07.069Z,100582.19
2023-05-25T03:23:14.195Z,100591.22
2023-05-25T03:26:19.263Z,100604.31
2023-05-25T03:29:28.783Z,100597.94
2023-05-25T03:32:35.290Z,100587.25
2023-05-25T03:35:42.384Z,100591.69
2023-05-25T03:38:47.588Z,100591.28
2023-05-25T03:41:54.579Z,100587.91
2023-05-25T03:45:01.165Z,100592.41
2023-05-25T03:48:08.292Z,100593.97
2023-05-25T03:51:14.452Z,100589.09
2023-05-25T03:54:19.060Z,100602.16
2023-05-25T03:57:24.982Z,100600.22
2023-05-25T04:00:31.434Z,100593.25
2023-05-25T04:03:37.312Z,100604.59
2023-05-25T04:06:49.366Z,100612.75
2023-05-25T04:09:57.370Z,100611.13
2023-05-25T04:13:04.827Z,100612.03
2023-05-25T04:16:11.730Z,100611.69
2023-05-25T04:19:18.105Z,100615.97
2023-05-25T04:22:24.954Z,100625.59
2023-05-25T04:25:33.083Z,100625.75
2023-05-25T04:28:42.429Z,100621.88
2023-05-25T04:31:50.258Z,100627.69
2023-05-25T04:35:01.200Z,100623.25
2023-05-25T04:38:08.465Z,100631.13
2023-05-25T04:41:15.389Z,100636.50
2023-05-25T04:44:23.058Z,100641.78
2023-05-25T04:47:32.200Z,100633.84
2023-05-25T04:50:41.489Z,100634.53
2023-05-25T04:53:47.485Z,100635.78
2023-05-25T04:56:53.522Z,100636.25
2023-05-25T04:59:59.106Z,100631.66
2023-05-25T05:03:03.919Z,100636.94
2023-05-25T05:06:09.520Z,100637.03
2023-05-25T05:09:17.963Z,100639.72
2023-05-25T05:12:24.346Z,100647.37
2023-05-25T05:15:29.241Z,100642.62
2023-05-25T05:18:37.319Z,100646.78
2023-05-25T05:21:41.890Z,100649.50
2023-05-25T05:24:47.736Z,100643.87
2023-05-25T05:27:51.674Z,100642.66
2023-05-25T05:30:56.252Z,100648.44
2023-05-25T05:33:59.043Z,100648.06
2023-05-25T05:37:02.565Z,100648.72
2023-05-25T05:40:07.761Z,100648.31
2023-05-25T05:43:13.191Z,100644.41
2023-05-25T05:46:16.803Z,100646.87
2023-05-25T05:49:21.287Z,100641.09
2023-05-25T05:52:24.575Z,100646.66
2023-05-25T05:55:28.445Z,100652.00
2023-05-25T05:58:32.943Z,100657.81
2023-05-25T06:01:37.011Z,100661.94
2023-05-25T06:04:42.191Z,100659.00
2023-05-25T06:07:46.477Z,100669.09
2023-05-25T06:10:50.888Z,100669.44
2023-05-25T06:13:54.411Z,100666.34
2023-05-25T06:16:59.201Z,100662.25
2023-05-25T06:20:02.940Z,100669.66
2023-05-25T06:23:09.625Z,100669.50
2023-05-25T06:26:13.338Z,100663.75
2023-05-25T06:29:17.561Z,100664.97
2023-05-25T06:32:21.930Z,100671.78
2023-05-25T06:35:25.884Z,100669.66
2023-05-25T06:38:29.907Z,100667.63
2023-05-25T06:41:34.920Z,100661.38
2023-05-25T06:44:38.191Z,100659.09
2023-05-25T06:47:42.996Z,100672.88
2023-05-25T06:50:46.722Z,100678.31
2023-05-25T06:53:50.385Z,100680.91
2023-05-25T06:56:54.586Z,100677.25
2023-05-25T06:59:58.038Z,100679.00
2023-05-25T07:03:01.791Z,100680.25
2023-05-25T07:06:07.006Z,100679.38
2023-05-25T07:09:10.593Z,100687.00
2023-05-25T07:12:15.205Z,100683.81
2023-05-25T07:15:19.493Z,100693.28
2023-05-25T07:18:22.787Z,100690.12
2023-05-25T07:21:26.223Z,100693.78
2023-05-25T07:24:29.419Z,100693.75
2023-05-25T07:27:33.920Z,100697.66
2023-05-25T07:30:37.411Z,100698.69
2023-05-25T07:33:41.151Z,100690.81
2023-05-25T07:36:45.377Z,100689.78
2023-05-25T07:39:51.301Z,100701.81
2023-05-25T07:42:55.005Z,100693.25
2023-05-25T07:45:57.848Z,100691.81
2023-05-25T07:49:03.652Z,100695.78
2023-05-25T07:52:06.676Z,100697.84
2023-05-25T07:55:10.808Z,100690.69
2023-05-25T07:58:15.133Z,100701.34
2023-05-25T08:01:19.274Z,100697.81
2023-05-25T08:04:23.813Z,100701.59
2023-05-25T08:07:27.666Z,100703.66
2023-05-25T08:10:32.621Z,100698.28
2023-05-25T08:13:35.691Z,100698.69
2023-05-25T08:16:39.008Z,100696.97
2023-05-25T08:19:42.025Z,100697.28
2023-05-25T08:22:45.525Z,100691.31
2023-05-25T08:25:48.383Z,100691.59
2023-05-25T08:28:52.726Z,100701.19
2023-05-25T08:31:55.796Z,100703.78
2023-05-25T08:35:00.575Z,100702.22
2023-05-25T08:38:04.662Z,100697.47
2023-05-25T08:41:08.038Z,100703.66
2023-05-25T08:44:11.454Z,100695.13
2023-05-25T08:47:17.052Z,100698.19
2023-05-25T08:50:20.897Z,100697.84
2023-05-25T08:53:25.696Z,100698.47
2023-05-25T08:56:36.811Z,100698.69
2023-05-25T08:59:43.505Z,100698.13
2023-05-25T09:02:56.876Z,100703.78
2023-05-25T09:06:01.921Z,100704.19
2023-05-25T09:09:05.641Z,100703.12
2023-05-25T09:12:11.043Z,100696.53
2023-05-25T09:15:13.917Z,100698.63
2023-05-25T09:18:17.495Z,100692.38
2023-05-25T09:21:20.605Z,100701.78
2023-05-25T09:24:24.990Z,100689.50
2023-05-25T09:27:28.228Z,100695.19
2023-05-25T09:30:33.342Z,100695.59
2023-05-25T09:33:40.368Z,100696.00
2023-05-25T09:36:44.028Z,100695.34
2023-05-25T09:39:47.930Z,100694.37
2023-05-25T09:42:51.160Z,100698.44
2023-05-25T09:45:56.745Z,100713.28
2023-05-25T09:49:00.241Z,100703.03
2023-05-25T09:52:09.509Z,100704.22
2023-05-25T09:55:16.396Z,100702.47
2023-05-25T09:58:19.586Z,100697.13
2023-05-25T10:01:24.262Z,100704.94
2023-05-25T10:04:28.224Z,100700.38
2023-05-25T10:07:32.232Z,100710.09
2023-05-25T10:10:36.233Z,100701.72
2023-05-25T10:13:40.027Z,100708.50
2023-05-25T10:16:47.883Z,100700.03
2023-05-25T10:19:57.535Z,100697.06
2023-05-25T10:23:04.355Z,100698.59
2023-05-25T10:26:09.475Z,100691.91
2023-05-25T10:29:15.107Z,100694.87
2023-05-25T10:32:21.887Z,100689.31
2023-05-25T10:35:25.646Z,100687.06
2023-05-25T10:38:31.800Z,100689.00
2023-05-25T10:41:35.798Z,100684.78
2023-05-25T10:44:41.810Z,100686.50
2023-05-25T10:47:49.364Z,100676.94
2023-05-25T10:50:53.819Z,100677.00
2023-05-25T10:54:02.429Z,100676.50
2023-05-25T10:57:20.303Z,100677.09
2023-05-25T11:00:23.697Z,100672.81
2023-05-25T11:03:44.730Z,100677.28
2023-05-25T11:06:48.030Z,100670.16
2023-05-25T11:09:58.797Z,100652.31
2023-05-25T11:13:22.092Z,100655.56
2023-05-25T11:16:35.953Z,100655.53
2023-05-25T11:19:43.900Z,100650.72
2023-05-25T11:22:46.657Z,100651.38
2023-05-25T11:25:49.669Z,100643.69
2023-05-25T11:28:53.716Z,100648.00
2023-05-25T11:31:56.884Z,100642.25
2023-05-25T11:34:59.551Z,100655.75
2023-05-25T11:38:06.314Z,100644.22
2023-05-25T11:41:17.000Z,100652.94
2023-05-25T11:44:31.719Z,100639.19
2023-05-25T11:47:35.783Z,100643.09
2023-05-25T11:50:39.659Z,100632.28
2023-05-25T11:53:43.862Z,100630.06
2023-05-25T11:56:46.862Z,100619.78
2023-05-25T11:59:51.602Z,100627.72
2023-05-25T12:02:55.241Z,100607.72
2023-05-25T12:05:58.482Z,100603.50
2023-05-25T12:09:08.309Z,100607.03
2023-05-25T12:12:11.426Z,100603.88
2023-05-25T12:15:18.403Z,100605.53
2023-05-25T12:18:24.281Z,100611.50
2023-05-25T12:21:27.496Z,100604.56
2023-05-25T12:24:30.774Z,100611.06
2023-05-25T12:27:34.152Z,100602.22
2023-05-25T12:30:38.850Z,100602.00
2023-05-25T12:33:42.171Z,100601.19
2023-05-25T12:36:51.624Z,100603.63
2023-05-25T12:39:55.580Z,100602.78
2023-05-25T12:42:59.473Z,100601.34
2023-05-25T12:46:03.696Z,100599.53
2023-05-25T12:49:32.202Z,100595.72
2023-05-25T12:52:44.671Z,100589.28
2023-05-25T12:55:50.284Z,100585.94
2023-05-25T12:58:55.954Z,100580.50
2023-05-25T13:02:00.440Z,100580.47
2023-05-25T13:05:05.347Z,100569.16
2023-05-25T13:08:09.631Z,100571.56
2023-05-25T13:11:13.020Z,100559.44
2023-05-25T13:14:16.899Z,100565.97
2023-05-25T13:17:19.930Z,100563.69
2023-05-25T13:20:25.665Z,100559.50
2023-05-25T13:23:28.713Z,100552.56
2023-05-25T13:26:33.094Z,100546.69
2023-05-25T13:29:37.405Z,100539.16
2023-05-25T13:32:43.653Z,100537.03
2023-05-25T13:36:08.712Z,100556.25
2023-05-25T13:39:13.925Z,100541.69
2023-05-25T13:42:18.939Z,100533.25
2023-05-25T13:45:44.050Z,100530.91
2023-05-25T13:49:08.107Z,100523.25
2023-05-25T13:52:31.679Z,100517.09
2023-05-25T13:55:55.495Z,100511.25
2023-05-25T13:58:59.907Z,100510.59
2023-05-25T14:02:04.660Z,100503.88
2023-05-25T14:05:10.013Z,100498.63
2023-05-25T14:08:15.782Z,100497.53
2023-05-25T14:11:27.863Z,100490.12
2023-05-25T14:14:37.639Z,100491.34
2023-05-25T14:17:46.390Z,100488.16
2023-05-25T14:20:50.678Z,100492.75
2023-05-25T14:23:55.756Z,100493.22
2023-05-25T14:27:00.771Z,100494.75
2023-05-25T14:30:07.910Z,100492.91
2023-05-25T14:33:14.925Z,100481.97
2023-05-25T14:36:21.309Z,100492.75
2023-05-25T14:39:27.346Z,100478.59
2023-05-25T14:42:33.173Z,100477.91
2023-05-25T14:45:37.919Z,100471.13
2023-05-25T14:48:44.363Z,100475.19
2023-05-25T14:51:49.575Z,100469.88
2023-05-25T14:54:53.992Z,100476.03
2023-05-25T14:57:59.842Z,100476.34
2023-05-25T15:01:05.355Z,100469.00
2023-05-25T15:04:09.567Z,100471.63
2023-05-25T15:07:15.515Z,100465.56
2023-05-25T15:10:22.136Z,100462.28
2023-05-25T15:13:28.185Z,100469.22
2023-05-25T15:16:33.780Z,100472.91
2023-05-25T15:19:42.568Z,100461.94
2023-05-25T15:22:47.792Z,100455.38
2023-05-25T15:25:55.152Z,100455.34
2023-05-25T15:28:58.844Z,100459.16
2023-05-25T15:32:04.512Z,100454.09
2023-05-25T15:35:10.302Z,100454.91
2023-05-25T15:38:17.521Z,100449.12
2023-05-25T15:41:25.677Z,100449.41
2023-05-25T15:44:31.078Z,100448.50
2023-05-25T15:47:37.274Z,100449.25
2023-05-25T15:50:44.122Z,100455.91
2023-05-25T15:53:49.107Z,100449.25
2023-05-25T15:56:54.153Z,100459.44
2023-05-25T16:00:01.115Z,100449.22
2023-05-25T16:03:07.825Z,100460.13
2023-05-25T16:06:13.209Z,100458.44
2023-05-25T16:09:19.262Z,100452.22
2023-05-25T16:12:27.808Z,100448.44
2023-05-25T16:15:33.448Z,100453.16
2023-05-25T16:18:39.685Z,100438.56
2023-05-25T16:21:48.570Z,100451.75
2023-05-25T16:24:56.939Z,100443.00
2023-05-25T16:28:01.781Z,100450.53
2023-05-25T16:31:08.076Z,100449.47
2023-05-25T16:34:14.718Z,100449.28
2023-05-25T16:37:21.230Z,100454.81
2023-05-25T16:40:30.830Z,100456.94
2023-05-25T16:43:38.954Z,100458.81
2023-05-25T16:46:45.944Z,100456.34
2023-05-25T16:49:53.082Z,100461.28
2023-05-25T16:53:00.542Z,100455.09
2023-05-25T16:56:07.784Z,100465.62
2023-05-25T16:59:15.908Z,100465.13
2023-05-25T17:02:24.121Z,100467.25
2023-05-25T17:05:31.261Z,100464.59
2023-05-25T17:08:37.699Z,100461.66
2023-05-25T17:11:43.841Z,100457.50
2023-05-25T17:14:49.950Z,100463.53
2023-05-25T17:17:57.123Z,100461.28
2023-05-25T17:21:03.727Z,100461.28
2023-05-25T17:24:09.895Z,100464.03
2023-05-25T17:27:18.549Z,100467.13
2023-05-25T17:30:23.305Z,100467.94
2023-05-25T17:33:29.521Z,100457.22
2023-05-25T17:36:37.922Z,100457.72
2023-05-25T17:39:45.386Z,100464.44
2023-05-25T17:42:50.943Z,100457.81
2023-05-25T17:46:00.868Z,100463.22
2023-05-25T17:49:07.296Z,100462.56
2023-05-25T17:52:13.756Z,100454.16
2023-05-25T17:55:19.117Z,100457.13
2023-05-25T17:58:25.434Z,100457.84
2023-05-25T18:01:31.403Z,100458.72
2023-05-25T18:04:38.112Z,100462.53
2023-05-25T18:07:45.459Z,100457.53
2023-05-25T18:10:54.072Z,100464.56
2023-05-25T18:14:01.190Z,100471.03
2023-05-25T18:17:07.190Z,100465.00
2023-05-25T18:20:13.048Z,100470.75
2023-05-25T18:23:19.607Z,100474.41
2023-05-25T18:26:26.044Z,100471.13
2023-05-25T18:29:32.758Z,100482.41
2023-05-25T18:32:40.296Z,100484.44
2023-05-25T18:35:49.571Z,100484.00
2023-05-25T18:38:54.765Z,100485.63
2023-05-25T18:42:02.222Z,100487.66
2023-05-25T18:45:08.215Z,100497.50
2023-05-25T18:48:13.403Z,100494.34
2023-05-25T18:51:23.599Z,100503.16
2023-05-25T18:54:29.849Z,100508.44
2023-05-25T18:57:37.317Z,100514.97
2023-05-25T19:00:45.331Z,100514.00
2023-05-25T19:03:51.833Z,100517.38
2023-05-25T19:06:59.699Z,100516.00
2023-05-25T19:10:08.986Z,100519.03
2023-05-25T19:13:15.982Z,100527.69
2023-05-25T19:16:21.616Z,100526.50
2023-05-25T19:19:29.158Z,100530.72
2023-05-25T19:22:36.323Z,100537.50
2023-05-25T19:25:45.808Z,100538.78
2023-05-25T19:28:50.170Z,100537.09
2023-05-25T19:31:54.711Z,100534.16
2023-05-25T19:35:00.936Z,100540.09
2023-05-25T19:38:06.644Z,100546.25
2023-05-25T19:41:13.532Z,100539.28
2023-05-25T19:44:23.641Z,100541.47
2023-05-25T19:47:28.715Z,100533.97
2023-05-25T19:50:36.215Z,100530.94
2023-05-25T19:53:42.816Z,100541.56
2023-05-25T19:56:48.408Z,100535.41
2023-05-25T19:59:53.888Z,100545.00
2023-05-25T20:03:00.954Z,100544.63
2023-05-25T20:06:07.004Z,100549.88
2023-05-25T20:09:14.679Z,100541.28
2023-05-25T20:12:22.827Z,100552.72
2023-05-25T20:15:31.364Z,100544.41
2023-05-25T20:18:38.423Z,100554.78
2023-05-25T20:21:45.412Z,100552.41
2023-05-25T20:24:55.978Z,100556.75
2023-05-25T20:28:03.419Z,100557.03
2023-05-25T20:31:10.010Z,100565.38
2023-05-25T20:34:16.081Z,100554.63
2023-05-25T20:37:23.398Z,100558.66
2023-05-25T20:40:31.428Z,100555.75
2023-05-25T20:43:39.409Z,100560.16
2023-05-25T20:46:46.575Z,100562.22
2023-05-25T20:49:54.365Z,100566.84
2023-05-25T20:52:59.661Z,100560.50
2023-05-25T20:56:06.113Z,100561.97
2023-05-25T20:59:12.722Z,100558.75
2023-05-25T21:02:21.425Z,100561.69
2023-05-25T21:05:26.820Z,100567.13
2023-05-25T21:08:34.044Z,100569.56
2023-05-25T21:11:40.726Z,100562.41
2023-05-25T21:14:47.088Z,100573.00
2023-05-25T21:17:51.832Z,100576.72
2023-05-25T21:20:58.668Z,100567.44
2023-05-25T21:24:02.619Z,100562.69
2023-05-25T21:27:07.793Z,100569.41
2023-05-25T21:30:16.080Z,100565.25
2023-05-25T21:33:21.814Z,100573.94
2023-05-25T21:36:26.730Z,100568.19
2023-05-25T21:39:31.573Z,100572.16
2023-05-25T21:42:41.030Z,100582.06
2023-05-25T21:45:49.678Z,100590.16
2023-05-25T21:48:58.360Z,100590.78
2023-05-25T21:52:05.985Z,100593.69
2023-05-25T21:55:15.932Z,100586.69
2023-05-25T21:58:21.756Z,100583.81
2023-05-25T22:01:26.736Z,100590.84
2023-05-25T22:04:32.945Z,100585.91
2023-05-25T22:07:39.561Z,100592.87
2023-05-25T22:10:49.597Z,100594.16
2023-05-25T22:13:56.753Z,100592.28
2023-05-25T22:17:03.677Z,100590.63
2023-05-25T22:20:09.406Z,100589.00
2023-05-25T22:23:15.745Z,100583.44
2023-05-25T22:26:20.525Z,100583.66
2023-05-25T22:29:25.956Z,100584.50
2023-05-25T22:32:30.940Z,100588.66
2023-05-25T22:35:36.222Z,100584.94
2023-05-25T22:38:41.421Z,100593.00
2023-05-25T22:41:47.033Z,100589.50
2023-05-25T22:44:51.833Z,100590.94
2023-05-25T22:47:57.222Z,100593.84
2023-05-25T22:51:05.312Z,100584.75
2023-05-25T22:54:13.437Z,100582.09
2023-05-25T22:57:18.003Z,100586.78
2023-05-25T23:00:25.887Z,100585.38
2023-05-25T23:03:34.410Z,100575.69
2023-05-25T23:06:39.150Z,100571.75
2023-05-25T23:09:42.060Z,100575.25
2023-05-25T23:12:48.041Z,100577.72
2023-05-25T23:15:56.541Z,100585.16
2023-05-25T23:19:04.808Z,100582.91
2023-05-25T23:22:11.770Z,100587.66
2023-05-25T23:25:18.069Z,100578.16
2023-05-25T23:28:23.246Z,100582.87
2023-05-25T23:31:31.885Z,100573.00
2023-05-25T23:34:39.946Z,100571.31
2023-05-25T23:37:52.366Z,100576.50
2023-05-25T23:40:58.965Z,100579.59
2023-05-25T23:44:06.126Z,100573.81
2023-05-25T23:47:14.152Z,100577.53
2023-05-25T23:50:21.895Z,100574.25
2023-05-25T23:53:29.791Z,100577.94
2023-05-25T23:56:36.352Z,100577.53
2023-05-25T23:59:46.156Z,100588.03
